Time;durP1;ratioP1;P1;durP2;ratioP2;P2;SDS_P1;SDS_P2;PMS_P1;PMS_P2;Temp;Humidity;BMP_temperature;BMP_pressure;BME280_temperature;BME280_humidity;BME280_pressure;Samples;Min_cycle;Max_cycle;Signal;HPM_P1;HPM_P2
2024/04/17 00:01:28;;;;;;;;;;;;;;;5.63;79.72;95072.77;108284;1280;124535;-90
2024/04/17 00:03:55;;;;;;;;;;;;;;;5.62;79.56;95070.84;108399;1284;23664;-90
2024/04/17 00:06:23;;;;;;;;;;;;;;;5.62;79.50;95067.95;108274;1278;124804;-91
2024/04/17 00:08:49;;;;;;;;;;;;;;;5.60;79.87;95066.91;108419;1284;22587;-91
2024/04/17 00:11:16;;;;;;;;;;;;;;;5.57;79.85;95062.95;108365;1284;22545;-90
2024/04/17 00:13:42;;;;;;;;;;;;;;;5.57;79.92;95059.58;108292;1282;124742;-91
2024/04/17 00:16:08;;;;;;;;;;;;;;;5.57;80.00;95050.46;108439;1277;22655;-90
2024/04/17 00:18:35;;;;;;;;;;;;;;;5.58;80.28;95054.71;108330;1284;124773;-90
2024/04/17 00:21:01;;;;;;;;;;;;;;;5.58;80.04;95052.80;108434;1284;22559;-90
2024/04/17 00:23:28;;;;;;;;;;;;;;;5.57;79.90;95049.75;108454;1281;22538;-90
2024/04/17 00:25:54;;;;;;;;;;;;;;;5.59;80.12;95056.04;108259;1283;124441;-90
2024/04/17 00:28:20;;;;;;;;;;;;;;;5.61;80.47;95057.59;108408;1282;22573;-90
2024/04/17 00:30:48;;;;;;;;;;;;;;;5.60;80.17;95053.73;108318;1284;124714;-89
2024/04/17 00:33:14;;;;;;;;;;;;;;;5.60;80.27;95051.35;108419;1284;25259;-91
2024/04/17 00:35:41;;;;;;;;;;;;;;;5.60;80.16;95050.26;108297;1283;125074;-91
2024/04/17 00:38:07;;;;;;;;;;;;;;;5.62;79.86;95052.92;108353;1284;22503;-91
2024/04/17 00:40:35;;;;;;;;;;;;;;;5.64;79.81;95056.11;108407;1284;22683;-90
2024/04/17 00:43:02;;;;;;;;;;;;;;;5.65;80.23;95051.56;108267;1284;124572;-90
2024/04/17 00:45:41;;;;;;;;;;;;;;;5.64;80.69;95046.84;108394;1281;23686;-90
2024/04/17 00:48:08;;;;;;;;;;;;;;;5.62;81.50;95038.21;108280;1285;124798;-90
2024/04/17 00:50:34;;;;;;;;;;;;;;;5.57;82.22;95034.38;108308;1284;22521;-90
2024/04/17 00:53:01;;;;;;;;;;;;;;;5.54;81.71;95032.31;108395;1281;22516;-90
2024/04/17 00:55:27;;;;;;;;;;;;;;;5.54;81.93;95023.36;108265;1285;125368;-90
2024/04/17 00:57:54;;;;;;;;;;;;;;;5.52;82.08;95022.73;108324;1283;22505;-90
2024/04/17 01:00:21;;;;;;;;;;;;;;;5.53;81.95;95017.50;108339;1284;125096;-90
2024/04/17 01:02:47;;;;;;;;;;;;;;;5.54;82.33;95015.95;108355;1285;22642;-91
2024/04/17 01:05:14;;;;;;;;;;;;;;;5.55;81.91;95017.77;108321;1280;22513;-90
2024/04/17 01:07:41;;;;;;;;;;;;;;;5.55;82.42;95016.33;108270;1277;124785;-91
2024/04/17 01:10:08;;;;;;;;;;;;;;;5.56;82.09;95017.15;108409;1274;22525;-90
2024/04/17 01:12:35;;;;;;;;;;;;;;;5.57;82.43;95012.97;108275;1277;124693;-90
2024/04/17 01:15:02;;;;;;;;;;;;;;;5.58;82.56;95007.74;108416;1285;25264;-90
2024/04/17 01:17:28;;;;;;;;;;;;;;;5.59;82.26;95007.59;108529;1278;22546;-90
2024/04/17 01:19:55;;;;;;;;;;;;;;;5.60;83.24;95008.19;108333;1282;124999;-89
2024/04/17 01:22:21;;;;;;;;;;;;;;;5.59;82.58;95004.66;108263;1284;24477;-90
2024/04/17 01:24:48;;;;;;;;;;;;;;;5.59;82.98;94996.29;108343;1284;125321;-90
2024/04/17 01:27:14;;;;;;;;;;;;;;;5.58;82.98;94992.83;108378;1284;22540;-90
2024/04/17 01:29:40;;;;;;;;;;;;;;;5.59;83.02;94994.74;108329;1282;124870;-89
2024/04/17 01:32:07;;;;;;;;;;;;;;;5.62;83.41;94998.49;108402;1279;22556;-90
2024/04/17 01:34:33;;;;;;;;;;;;;;;5.65;83.30;94994.20;108420;1284;22505;-90
2024/04/17 01:37:00;;;;;;;;;;;;;;;5.69;83.29;94992.61;108274;1283;124854;-91
2024/04/17 01:39:27;;;;;;;;;;;;;;;5.73;83.10;94994.59;108413;1284;22538;-90
2024/04/17 01:41:53;;;;;;;;;;;;;;;5.78;82.76;94989.71;108312;1284;125267;-90
2024/04/17 01:44:20;;;;;;;;;;;;;;;5.82;82.53;94987.79;108447;1278;22595;-90
2024/04/17 01:46:47;;;;;;;;;;;;;;;5.84;82.66;94983.84;108458;1284;22572;-91
2024/04/17 01:49:13;;;;;;;;;;;;;;;5.85;82.50;94983.17;108345;1284;125113;-91
2024/04/17 01:51:40;;;;;;;;;;;;;;;5.87;82.67;94979.80;108423;1284;23855;-90
2024/04/17 01:54:06;;;;;;;;;;;;;;;5.88;82.68;94979.85;108347;1283;124779;-90
2024/04/17 01:56:32;;;;;;;;;;;;;;;5.90;82.44;94982.34;108390;1285;22531;-90
2024/04/17 01:58:59;;;;;;;;;;;;;;;5.92;82.20;94980.90;108408;1281;22550;-91
2024/04/17 02:01:25;;;;;;;;;;;;;;;5.94;82.53;94980.48;108329;1284;124655;-91
2024/04/17 02:03:52;;;;;;;;;;;;;;;5.97;82.49;94976.41;108328;1284;22509;-91
2024/04/17 02:06:19;;;;;;;;;;;;;;;6.00;82.41;94973.80;108357;1283;124879;-90
2024/04/17 02:08:45;;;;;;;;;;;;;;;6.05;82.29;94974.14;108444;1284;25301;-91
2024/04/17 02:11:12;;;;;;;;;;;;;;;6.08;82.00;94976.77;108392;1284;22532;-90
2024/04/17 02:13:38;;;;;;;;;;;;;;;6.10;81.98;94973.77;108312;1284;124663;-90
2024/04/17 02:16:05;;;;;;;;;;;;;;;6.11;81.89;94975.44;108444;1284;22515;-91
2024/04/17 02:18:32;;;;;;;;;;;;;;;6.12;81.94;94973.42;108310;1276;124779;-90
2024/04/17 02:21:00;;;;;;;;;;;;;;;6.11;81.98;94971.31;108455;1278;22548;-90
2024/04/17 02:23:28;;;;;;;;;;;;;;;6.09;81.89;94970.54;108434;1284;25267;-91
2024/04/17 02:25:54;;;;;;;;;;;;;;;6.07;82.05;94971.57;108294;1283;124478;-91
2024/04/17 02:28:21;;;;;;;;;;;;;;;6.06;81.94;94968.43;108423;1284;22529;-90
2024/04/17 02:30:48;;;;;;;;;;;;;;;6.06;81.99;94966.84;108318;1278;125130;-91
2024/04/17 02:33:14;;;;;;;;;;;;;;;6.09;81.94;94965.19;108422;1284;22555;-90
2024/04/17 02:35:40;;;;;;;;;;;;;;;6.10;81.72;94959.39;108255;1284;124802;-90
2024/04/17 02:38:07;;;;;;;;;;;;;;;6.10;82.09;94960.43;108338;1284;22524;-90
2024/04/17 02:40:33;;;;;;;;;;;;;;;6.10;82.15;94959.80;108310;1284;22524;-90
2024/04/17 02:42:59;;;;;;;;;;;;;;;6.10;82.10;94968.48;108266;1285;124588;-90
2024/04/17 02:45:26;;;;;;;;;;;;;;;6.08;82.32;94965.46;108395;1279;22664;-91
2024/04/17 02:47:52;;;;;;;;;;;;;;;6.07;82.52;94969.66;108194;1285;124779;-90
2024/04/17 02:50:19;;;;;;;;;;;;;;;6.07;82.34;94968.52;108396;1283;22505;-90
2024/04/17 02:52:45;;;;;;;;;;;;;;;6.05;82.67;94971.13;108406;1274;23676;-91
2024/04/17 02:55:11;;;;;;;;;;;;;;;6.06;82.74;94971.41;108316;1283;125030;-90
2024/04/17 02:57:38;;;;;;;;;;;;;;;6.06;83.06;94971.36;108328;1280;22513;-90
2024/04/17 03:00:05;;;;;;;;;;;;;;;6.05;82.99;94967.95;108262;1279;124996;-91
2024/04/17 03:02:31;;;;;;;;;;;;;;;6.03;82.91;94970.36;108389;1285;23305;-90
2024/04/17 03:04:58;;;;;;;;;;;;;;;6.03;83.28;94971.77;108377;1280;23738;-91
2024/04/17 03:07:24;;;;;;;;;;;;;;;6.02;82.88;94972.84;108239;1284;125265;-90
2024/04/17 03:09:51;;;;;;;;;;;;;;;6.03;82.92;94974.88;108339;1280;22513;-90
2024/04/17 03:12:17;;;;;;;;;;;;;;;6.02;83.07;94977.04;108302;1281;124867;-91
2024/04/17 03:14:44;;;;;;;;;;;;;;;6.00;83.29;94981.94;108464;1284;22504;-91
2024/04/17 03:17:10;;;;;;;;;;;;;;;6.01;83.27;94983.21;108394;1285;22553;-90
2024/04/17 03:19:37;;;;;;;;;;;;;;;6.00;83.66;94985.50;108321;1283;125361;-90
2024/04/17 03:22:03;;;;;;;;;;;;;;;5.98;83.88;94988.91;108415;1284;22555;-90
2024/04/17 03:24:29;;;;;;;;;;;;;;;5.97;84.16;94987.36;108317;1285;124794;-90
2024/04/17 03:26:56;;;;;;;;;;;;;;;5.97;84.07;94987.59;108431;1280;22505;-90
2024/04/17 03:29:22;;;;;;;;;;;;;;;5.96;84.39;94991.84;108450;1284;23568;-90
2024/04/17 03:31:49;;;;;;;;;;;;;;;5.95;84.38;94997.61;108319;1284;124637;-91
2024/04/17 03:34:16;;;;;;;;;;;;;;;5.95;84.23;94998.33;108437;1284;22541;-91
2024/04/17 03:36:42;;;;;;;;;;;;;;;5.95;84.75;94994.88;108325;1284;125477;-91
2024/04/17 03:39:09;;;;;;;;;;;;;;;5.94;84.94;94996.85;108428;1284;22495;-91
2024/04/17 03:41:35;;;;;;;;;;;;;;;5.93;84.77;94995.02;108210;1286;124982;-90
2024/04/17 03:44:01;;;;;;;;;;;;;;;5.96;85.17;94993.41;108396;1280;22522;-90
2024/04/17 03:46:28;;;;;;;;;;;;;;;5.96;85.23;94996.31;108407;1284;22500;-90
2024/04/17 03:48:54;;;;;;;;;;;;;;;5.97;85.41;95001.35;108253;1284;124965;-90
2024/04/17 03:51:21;;;;;;;;;;;;;;;5.96;85.38;95005.84;108355;1283;22519;-90
2024/04/17 03:53:49;;;;;;;;;;;;;;;5.97;85.21;95006.35;108295;1284;124899;-90
2024/04/17 03:56:15;;;;;;;;;;;;;;;5.95;85.29;95010.27;108338;1277;22548;-90
2024/04/17 03:58:42;;;;;;;;;;;;;;;5.95;85.68;95020.85;108375;1284;22553;-90
2024/04/17 04:01:08;;;;;;;;;;;;;;;5.95;85.55;95024.27;108300;1276;125204;-91
2024/04/17 04:03:35;;;;;;;;;;;;;;;5.95;85.29;95030.06;108404;1284;22690;-90
2024/04/17 04:06:01;;;;;;;;;;;;;;;5.96;85.65;95032.84;108266;1285;125127;-90
2024/04/17 04:08:28;;;;;;;;;;;;;;;5.97;85.94;95035.48;108390;1283;22524;-90
2024/04/17 04:10:55;;;;;;;;;;;;;;;5.98;86.78;95040.23;108426;1284;24227;-91
2024/04/17 04:13:21;;;;;;;;;;;;;;;5.97;86.29;95041.46;108272;1284;124773;-90
2024/04/17 04:15:51;;;;;;;;;;;;;;;5.98;86.72;95043.69;108384;1284;22539;-90
2024/04/17 04:18:18;;;;;;;;;;;;;;;5.96;86.45;95044.58;108295;1284;124733;-90
2024/04/17 04:20:44;;;;;;;;;;;;;;;5.96;86.91;95043.16;108375;1284;22528;-91
2024/04/17 04:23:11;;;;;;;;;;;;;;;5.98;87.18;95044.00;108397;1284;22554;-91
2024/04/17 04:25:37;;;;;;;;;;;;;;;5.97;86.76;95042.81;108266;1284;124861;-89
2024/04/17 04:28:03;;;;;;;;;;;;;;;5.97;86.69;95045.51;108377;1285;22519;-91
2024/04/17 04:30:32;;;;;;;;;;;;;;;5.98;86.94;95046.02;108346;1285;124819;-90
2024/04/17 04:32:59;;;;;;;;;;;;;;;6.00;87.12;95047.98;108477;1284;23550;-90
2024/04/17 04:35:25;;;;;;;;;;;;;;;6.03;87.42;95049.27;108438;1285;22591;-91
2024/04/17 04:37:51;;;;;;;;;;;;;;;6.02;87.65;95054.64;108294;1284;124660;-90
2024/04/17 04:40:18;;;;;;;;;;;;;;;6.04;88.16;95061.72;108396;1284;22563;-90
2024/04/17 04:42:44;;;;;;;;;;;;;;;6.03;88.14;95061.67;108320;1284;125045;-91
2024/04/17 04:45:11;;;;;;;;;;;;;;;6.01;87.73;95066.13;108444;1284;22519;-91
2024/04/17 04:47:37;;;;;;;;;;;;;;;5.97;87.76;95071.91;108329;1277;124969;-89
2024/04/17 04:50:04;;;;;;;;;;;;;;;5.96;88.43;95078.21;108396;1284;22642;-90
2024/04/17 04:52:30;;;;;;;;;;;;;;;5.97;88.74;95077.43;108335;1280;22529;-89
2024/04/17 04:54:57;;;;;;;;;;;;;;;5.99;89.53;95077.40;108288;1284;124830;-90
2024/04/17 04:57:23;;;;;;;;;;;;;;;5.99;90.36;95075.98;108435;1284;22535;-90
2024/04/17 04:59:51;;;;;;;;;;;;;;;5.97;90.85;95076.71;108271;1279;124994;-91
2024/04/17 05:02:17;;;;;;;;;;;;;;;5.87;90.40;95077.41;108386;1280;24765;-90
2024/04/17 05:04:44;;;;;;;;;;;;;;;5.79;91.54;95083.42;108359;1285;22546;-90
2024/04/17 05:07:10;;;;;;;;;;;;;;;5.71;91.87;95092.00;108274;1284;124965;-90
2024/04/17 05:09:37;;;;;;;;;;;;;;;5.66;93.03;95095.61;108428;1284;22514;-90
2024/04/17 05:12:03;;;;;;;;;;;;;;;5.58;93.99;95096.77;108179;1285;124999;-91
2024/04/17 05:14:30;;;;;;;;;;;;;;;5.45;93.93;95097.39;108389;1280;22480;-90
2024/04/17 05:16:56;;;;;;;;;;;;;;;5.37;94.68;95097.10;108408;1280;22578;-89
2024/04/17 05:19:23;;;;;;;;;;;;;;;5.33;95.51;95095.92;108243;1284;124910;-91
2024/04/17 05:21:49;;;;;;;;;;;;;;;5.30;95.64;95093.01;108395;1284;22567;-90
2024/04/17 05:24:15;;;;;;;;;;;;;;;5.31;95.83;95094.59;108328;1284;125128;-90
2024/04/17 05:26:42;;;;;;;;;;;;;;;5.32;96.82;95094.77;108391;1284;22526;-90
2024/04/17 05:29:08;;;;;;;;;;;;;;;5.33;97.46;95099.02;108424;1276;22521;-90
2024/04/17 05:31:35;;;;;;;;;;;;;;;5.32;97.81;95103.36;108314;1279;125109;-90
2024/04/17 05:34:01;;;;;;;;;;;;;;;5.30;98.30;95109.45;108361;1284;25256;-91
2024/04/17 05:36:28;;;;;;;;;;;;;;;5.25;98.80;95111.65;108298;1285;124760;-90
2024/04/17 05:38:54;;;;;;;;;;;;;;;5.12;99.34;95119.99;108334;1285;22580;-91
2024/04/17 05:41:21;;;;;;;;;;;;;;;5.06;99.50;95121.20;108322;1285;22508;-90
2024/04/17 05:43:48;;;;;;;;;;;;;;;5.03;99.38;95121.66;108343;1280;124582;-90
2024/04/17 05:46:14;;;;;;;;;;;;;;;5.03;99.90;95126.05;108371;1285;22526;-90
2024/04/17 05:48:40;;;;;;;;;;;;;;;4.99;100.00;95128.70;108308;1280;125067;-90
2024/04/17 05:51:07;;;;;;;;;;;;;;;4.90;100.00;95136.80;108369;1280;25228;-90
2024/04/17 05:53:33;;;;;;;;;;;;;;;4.81;100.00;95143.61;108198;1285;125193;-90
2024/04/17 05:56:00;;;;;;;;;;;;;;;4.75;100.00;95142.30;108421;1283;22510;-90
2024/04/17 05:58:27;;;;;;;;;;;;;;;4.71;100.00;95145.20;108383;1280;22564;-90
2024/04/17 06:00:53;;;;;;;;;;;;;;;4.69;100.00;95152.96;108293;1285;125131;-90
2024/04/17 06:03:20;;;;;;;;;;;;;;;4.66;100.00;95154.48;108299;1280;22501;-90
2024/04/17 06:05:47;;;;;;;;;;;;;;;4.66;100.00;95158.82;108347;1280;125543;-90
2024/04/17 06:08:13;;;;;;;;;;;;;;;4.64;100.00;95161.80;108455;1282;22526;-89
2024/04/17 06:10:40;;;;;;;;;;;;;;;4.61;100.00;95161.13;108416;1284;23114;-90
2024/04/17 06:13:06;;;;;;;;;;;;;;;4.57;100.00;95164.20;108198;1280;124970;-90
2024/04/17 06:15:36;;;;;;;;;;;;;;;4.54;100.00;95164.09;108417;1284;22517;-88
2024/04/17 06:18:03;;;;;;;;;;;;;;;4.54;100.00;95169.23;108282;1283;125179;-90
2024/04/17 06:20:30;;;;;;;;;;;;;;;4.52;100.00;95169.77;108426;1284;22517;-90
2024/04/17 06:22:56;;;;;;;;;;;;;;;4.52;100.00;95169.13;108390;1280;22505;-89
2024/04/17 06:25:23;;;;;;;;;;;;;;;4.55;100.00;95172.96;108313;1285;125106;-90
2024/04/17 06:27:49;;;;;;;;;;;;;;;4.53;100.00;95172.75;108395;1284;24721;-90
2024/04/17 06:30:16;;;;;;;;;;;;;;;4.55;100.00;95175.12;108392;1284;125124;-90
2024/04/17 06:32:42;;;;;;;;;;;;;;;4.56;100.00;95178.70;108427;1284;22531;-90
2024/04/17 06:35:09;;;;;;;;;;;;;;;4.55;100.00;95181.64;108363;1285;23846;-90
2024/04/17 06:37:35;;;;;;;;;;;;;;;4.53;100.00;95184.04;108301;1285;125058;-90
2024/04/17 06:40:02;;;;;;;;;;;;;;;4.51;100.00;95188.55;108369;1280;22509;-90
2024/04/17 06:42:28;;;;;;;;;;;;;;;4.51;100.00;95200.06;108279;1276;125048;-90
2024/04/17 06:44:55;;;;;;;;;;;;;;;4.51;100.00;95205.80;108437;1285;24221;-89
2024/04/17 06:47:21;;;;;;;;;;;;;;;4.45;100.00;95209.00;108356;1277;22543;-91
2024/04/17 06:49:47;;;;;;;;;;;;;;;4.41;100.00;95213.60;108200;1280;125048;-91
2024/04/17 06:52:14;;;;;;;;;;;;;;;4.36;100.00;95213.14;108475;1273;24965;-91
2024/04/17 06:54:40;;;;;;;;;;;;;;;4.30;100.00;95208.85;108234;1279;125025;-90
2024/04/17 06:57:07;;;;;;;;;;;;;;;4.28;100.00;95213.52;108416;1285;22666;-91
2024/04/17 06:59:33;;;;;;;;;;;;;;;4.28;100.00;95216.96;108326;1280;125495;-90
2024/04/17 07:02:00;;;;;;;;;;;;;;;4.28;100.00;95220.41;108377;1284;22531;-90
2024/04/17 07:04:26;;;;;;;;;;;;;;;4.28;100.00;95221.95;108379;1285;22515;-91
2024/04/17 07:06:53;;;;;;;;;;;;;;;4.24;100.00;95225.13;108271;1284;124952;-90
2024/04/17 07:09:19;;;;;;;;;;;;;;;4.24;100.00;95228.02;108307;1284;22530;-91
2024/04/17 07:11:47;;;;;;;;;;;;;;;4.26;100.00;95225.80;108301;1282;125079;-91
2024/04/17 07:14:13;;;;;;;;;;;;;;;4.26;100.00;95231.45;108327;1284;22503;-90
2024/04/17 07:16:39;;;;;;;;;;;;;;;4.25;100.00;95227.56;108412;1276;22518;-91
2024/04/17 07:19:06;;;;;;;;;;;;;;;4.28;100.00;95231.76;108270;1276;125836;-90
2024/04/17 07:21:32;;;;;;;;;;;;;;;4.28;100.00;95233.36;108386;1280;22600;-90
2024/04/17 07:23:58;;;;;;;;;;;;;;;4.27;100.00;95237.32;108312;1280;125119;-91
2024/04/17 07:26:25;;;;;;;;;;;;;;;4.21;100.00;95235.03;108407;1284;25386;-90
2024/04/17 07:28:51;;;;;;;;;;;;;;;4.23;100.00;95235.15;108388;1284;22512;-90
2024/04/17 07:31:18;;;;;;;;;;;;;;;4.29;100.00;95240.52;108261;1283;125125;-89
2024/04/17 07:33:47;;;;;;;;;;;;;;;4.33;100.00;95244.30;108318;1284;24184;-90
2024/04/17 07:36:13;;;;;;;;;;;;;;;4.30;100.00;95242.98;108252;1284;125099;-90
2024/04/17 07:38:40;;;;;;;;;;;;;;;4.26;100.00;95244.23;108371;1277;22931;-91
2024/04/17 07:41:07;;;;;;;;;;;;;;;4.28;100.00;95246.52;108414;1276;22554;-89
2024/04/17 07:43:33;;;;;;;;;;;;;;;4.24;100.00;95247.73;108292;1284;125044;-89
2024/04/17 07:46:00;;;;;;;;;;;;;;;4.25;100.00;95247.21;108446;1284;24209;-89
2024/04/17 07:48:26;;;;;;;;;;;;;;;4.26;100.00;95248.27;108244;1278;124919;-89
2024/04/17 07:50:52;;;;;;;;;;;;;;;4.18;100.00;95248.38;108421;1276;22611;-90
2024/04/17 07:53:19;;;;;;;;;;;;;;;4.19;100.00;95251.37;108333;1280;22517;-90
2024/04/17 07:55:45;;;;;;;;;;;;;;;4.20;100.00;95250.20;108339;1284;125058;-91
2024/04/17 07:58:12;;;;;;;;;;;;;;;4.17;100.00;95251.38;108439;1276;22527;-91
2024/04/17 08:00:41;;;;;;;;;;;;;;;4.14;100.00;95252.63;108364;1278;125125;-90
2024/04/17 08:03:08;;;;;;;;;;;;;;;4.13;100.00;95250.67;108467;1280;22534;-90
2024/04/17 08:05:34;;;;;;;;;;;;;;;4.13;100.00;95257.99;108329;1284;125103;-89
2024/04/17 08:08:00;;;;;;;;;;;;;;;4.13;100.00;95252.85;108394;1280;22539;-91
2024/04/17 08:10:27;;;;;;;;;;;;;;;4.14;100.00;95258.77;108352;1283;22517;-90
2024/04/17 08:13:04;;;;;;;;;;;;;;;4.12;100.00;95260.83;108255;1284;125045;-91
2024/04/17 08:15:30;;;;;;;;;;;;;;;4.09;100.00;95261.60;108403;1284;24224;-90
2024/04/17 08:17:57;;;;;;;;;;;;;;;4.08;100.00;95263.21;108281;1284;125109;-90
2024/04/17 08:20:23;;;;;;;;;;;;;;;4.07;100.00;95266.61;108337;1280;22533;-90
2024/04/17 08:22:50;;;;;;;;;;;;;;;4.07;100.00;95267.42;108381;1279;24805;-90
2024/04/17 08:25:16;;;;;;;;;;;;;;;4.07;100.00;95269.89;108368;1284;124951;-88
2024/04/17 08:27:43;;;;;;;;;;;;;;;4.06;100.00;95271.45;108332;1284;24248;-89
2024/04/17 08:30:09;;;;;;;;;;;;;;;4.10;100.00;95269.17;108261;1278;125801;-88
2024/04/17 08:32:36;;;;;;;;;;;;;;;4.16;100.00;95271.22;108367;1282;22823;-88
2024/04/17 08:35:03;;;;;;;;;;;;;;;4.21;100.00;95273.20;108373;1284;22617;-89
2024/04/17 08:37:30;;;;;;;;;;;;;;;4.22;100.00;95273.81;108271;1284;124920;-88
2024/04/17 08:39:57;;;;;;;;;;;;;;;4.20;100.00;95272.66;108412;1284;22925;-89
2024/04/17 08:42:23;;;;;;;;;;;;;;;4.20;100.00;95276.91;108296;1277;124919;-88
2024/04/17 08:44:49;;;;;;;;;;;;;;;4.23;100.00;95276.41;108398;1284;22587;-89
2024/04/17 08:47:16;;;;;;;;;;;;;;;4.26;100.00;95277.54;108348;1276;22551;-88
2024/04/17 08:49:42;;;;;;;;;;;;;;;4.27;100.00;95280.14;108301;1281;125016;-88
2024/04/17 08:52:09;;;;;;;;;;;;;;;4.26;100.00;95280.31;108332;1280;25874;-89
2024/04/17 08:54:35;;;;;;;;;;;;;;;4.25;100.00;95282.23;108280;1283;124886;-89
2024/04/17 08:57:02;;;;;;;;;;;;;;;4.26;100.00;95284.27;108333;1271;22510;-89
2024/04/17 08:59:29;;;;;;;;;;;;;;;4.24;100.00;95284.62;108402;1276;22535;-89
2024/04/17 09:01:56;;;;;;;;;;;;;;;4.25;100.00;95286.98;108284;1267;124813;-88
2024/04/17 09:04:22;;;;;;;;;;;;;;;4.26;100.00;95291.27;108857;1278;25382;-89
2024/04/17 09:06:49;;;;;;;;;;;;;;;4.28;100.00;95295.81;108327;1284;124922;-89
2024/04/17 09:09:18;;;;;;;;;;;;;;;4.33;100.00;95301.04;108390;1284;22693;-89
2024/04/17 09:11:45;;;;;;;;;;;;;;;4.35;100.00;95298.18;108248;1279;125106;-88
2024/04/17 09:14:11;;;;;;;;;;;;;;;4.38;100.00;95301.54;108361;1284;22521;-89
2024/04/17 09:16:39;;;;;;;;;;;;;;;4.44;100.00;95303.60;108368;1284;22542;-89
2024/04/17 09:19:08;;;;;;;;;;;;;;;4.47;100.00;95304.96;108249;1283;125085;-89
2024/04/17 09:21:39;;;;;;;;;;;;;;;4.51;100.00;95308.34;108399;1274;23218;-89
2024/04/17 09:24:05;;;;;;;;;;;;;;;4.53;100.00;95309.83;108274;1276;125138;-88
2024/04/17 09:26:31;;;;;;;;;;;;;;;4.58;100.00;95308.60;108410;1284;22537;-88
2024/04/17 09:28:58;;;;;;;;;;;;;;;4.62;100.00;95309.82;108393;1284;23771;-89
2024/04/17 09:31:24;;;;;;;;;;;;;;;4.68;100.00;95311.21;108347;1276;125352;-88
2024/04/17 09:33:51;;;;;;;;;;;;;;;4.74;100.00;95309.06;108377;1284;22573;-89
2024/04/17 09:36:18;;;;;;;;;;;;;;;4.76;100.00;95312.75;108237;1284;125242;-89
2024/04/17 09:38:45;;;;;;;;;;;;;;;4.72;100.00;95314.73;108329;1284;22532;-88
2024/04/17 09:41:11;;;;;;;;;;;;;;;4.69;100.00;95318.35;108372;1284;22540;-88
2024/04/17 09:43:44;;;;;;;;;;;;;;;4.64;100.00;95318.67;108267;1280;125014;-89
2024/04/17 09:46:13;;;;;;;;;;;;;;;4.62;100.00;95322.88;108374;1276;22561;-88
2024/04/17 09:48:41;;;;;;;;;;;;;;;4.62;100.00;95322.37;108293;1277;125059;-88
2024/04/17 09:51:09;;;;;;;;;;;;;;;4.61;100.00;95326.06;108350;1278;22522;-88
2024/04/17 09:53:36;;;;;;;;;;;;;;;4.60;100.00;95324.38;108305;1284;125240;-88
2024/04/17 09:56:03;;;;;;;;;;;;;;;4.57;100.00;95326.68;108320;1284;24184;-88
2024/04/17 09:58:32;;;;;;;;;;;;;;;4.58;100.00;95325.81;108386;1284;22517;-89
2024/04/17 10:01:06;;;;;;;;;;;;;;;4.58;100.00;95327.32;108325;1284;125166;-89
2024/04/17 10:03:33;;;;;;;;;;;;;;;4.56;100.00;95328.52;108369;1284;24920;-89
2024/04/17 10:06:00;;;;;;;;;;;;;;;4.51;100.00;95325.05;108273;1282;125072;-88
2024/04/17 10:08:30;;;;;;;;;;;;;;;4.48;100.00;95322.34;108312;1284;22516;-88
2024/04/17 10:10:56;;;;;;;;;;;;;;;4.47;100.00;95320.74;108390;1284;23225;-90
2024/04/17 10:13:23;;;;;;;;;;;;;;;4.46;100.00;95319.89;108359;1284;125082;-88
2024/04/17 10:15:50;;;;;;;;;;;;;;;4.48;100.00;95321.67;108402;1278;22524;-89
2024/04/17 10:18:17;;;;;;;;;;;;;;;4.53;100.00;95325.23;108294;1284;125315;-89
2024/04/17 10:20:43;;;;;;;;;;;;;;;4.53;100.00;95324.72;108236;1284;180531;-89
2024/04/17 10:23:11;;;;;;;;;;;;;;;4.49;100.00;95330.98;108387;1284;22538;-88
2024/04/17 10:26:00;;;;;;;;;;;;;;;4.48;100.00;95328.43;108306;1280;124912;-88
2024/04/17 10:28:27;;;;;;;;;;;;;;;4.45;100.00;95329.02;108357;1283;22521;-87
2024/04/17 10:30:56;;;;;;;;;;;;;;;4.49;100.00;95328.54;108240;1285;124980;-88
2024/04/17 10:33:29;;;;;;;;;;;;;;;4.53;100.00;95327.48;108355;1278;22511;-88
2024/04/17 10:35:56;;;;;;;;;;;;;;;4.53;100.00;95327.33;108278;1277;125269;-88
2024/04/17 10:38:24;;;;;;;;;;;;;;;4.53;100.00;95328.45;108394;1276;22553;-88
2024/04/17 10:40:54;;;;;;;;;;;;;;;4.55;100.00;95328.95;108323;1280;25389;-88
2024/04/17 10:43:21;;;;;;;;;;;;;;;4.57;100.00;95328.80;108279;1284;125096;-89
2024/04/17 10:46:08;;;;;;;;;;;;;;;4.62;100.00;95333.92;108370;1284;25338;-87
2024/04/17 10:48:47;;;;;;;;;;;;;;;4.63;100.00;95332.42;108289;1284;125050;-88
2024/04/17 10:51:17;;;;;;;;;;;;;;;4.67;100.00;95334.48;108403;1284;23233;-89
2024/04/17 10:53:45;;;;;;;;;;;;;;;4.71;100.00;95336.58;108173;1284;125363;-87
2024/04/17 10:56:12;;;;;;;;;;;;;;;4.77;100.00;95334.42;108401;1284;22542;-88
2024/04/17 10:58:39;;;;;;;;;;;;;;;4.81;100.00;95334.78;108472;1282;22669;-88
2024/04/17 11:01:07;;;;;;;;;;;;;;;4.86;100.00;95332.73;108296;1277;125089;-87
2024/04/17 11:03:33;;;;;;;;;;;;;;;4.92;100.00;95336.31;108369;1285;22510;-87
2024/04/17 11:06:00;;;;;;;;;;;;;;;4.99;100.00;95333.48;108228;1276;125110;-87
2024/04/17 11:08:26;;;;;;;;;;;;;;;5.06;100.00;95329.77;108382;1284;24301;-89
2024/04/17 11:10:56;;;;;;;;;;;;;;;5.19;100.00;95333.23;108415;1284;22530;-88
2024/04/17 11:13:22;;;;;;;;;;;;;;;5.33;100.00;95332.31;108306;1277;124945;-87
2024/04/17 11:15:48;;;;;;;;;;;;;;;5.45;100.00;95332.14;108320;1285;23942;-88
2024/04/17 11:18:16;;;;;;;;;;;;;;;5.51;100.00;95336.48;108308;1276;125176;-88
2024/04/17 11:20:43;;;;;;;;;;;;;;;5.51;100.00;95333.52;108362;1285;22571;-88
2024/04/17 11:23:09;;;;;;;;;;;;;;;5.51;100.00;95336.27;108366;1284;22534;-87
2024/04/17 11:25:37;;;;;;;;;;;;;;;5.53;100.00;95337.16;108312;1276;125051;-87
2024/04/17 11:28:03;;;;;;;;;;;;;;;5.52;100.00;95338.76;108383;1285;22568;-88
2024/04/17 11:30:29;;;;;;;;;;;;;;;5.50;100.00;95338.46;108321;1277;125004;-88
2024/04/17 11:32:56;;;;;;;;;;;;;;;5.47;99.89;95339.05;108402;1273;23671;-88
2024/04/17 11:35:22;;;;;;;;;;;;;;;5.50;100.00;95344.20;108404;1285;22557;-89
2024/04/17 11:37:49;;;;;;;;;;;;;;;5.54;100.00;95342.14;108301;1270;124914;-88
2024/04/17 11:40:19;;;;;;;;;;;;;;;5.60;99.72;95342.34;108373;1277;22552;-88
2024/04/17 11:42:45;;;;;;;;;;;;;;;5.63;99.76;95341.67;108320;1270;124762;-88
2024/04/17 11:45:14;;;;;;;;;;;;;;;5.68;100.00;95343.83;108367;1276;22527;-88
2024/04/17 11:47:41;;;;;;;;;;;;;;;5.71;100.00;95343.23;108267;1285;125930;-88
2024/04/17 11:50:09;;;;;;;;;;;;;;;5.78;100.00;95341.48;108346;1285;24211;-88
2024/04/17 11:52:36;;;;;;;;;;;;;;;5.88;100.00;95337.89;108415;1284;22507;-88
2024/04/17 11:55:02;;;;;;;;;;;;;;;5.99;100.00;95331.58;108360;1284;125126;-88
2024/04/17 11:57:29;;;;;;;;;;;;;;;6.15;100.00;95326.73;108409;1277;22572;-88
2024/04/17 11:59:55;;;;;;;;;;;;;;;6.27;100.00;95325.89;108312;1285;125100;-88
2024/04/17 12:02:25;;;;;;;;;;;;;;;6.30;99.61;95324.37;108404;1285;22596;-90
2024/04/17 12:04:52;;;;;;;;;;;;;;;6.30;98.51;95320.95;108349;1285;22511;-89
2024/04/17 12:07:18;;;;;;;;;;;;;;;6.32;99.02;95323.88;108388;1278;124799;-89
2024/04/17 12:09:48;;;;;;;;;;;;;;;6.36;98.40;95322.67;108373;1284;22689;-89
2024/04/17 12:12:15;;;;;;;;;;;;;;;6.38;98.69;95327.92;108343;1284;125047;-89
2024/04/17 12:14:42;;;;;;;;;;;;;;;6.41;97.53;95330.02;108386;1278;22519;-89
2024/04/17 12:17:08;;;;;;;;;;;;;;;6.41;96.29;95334.39;108381;1279;22537;-89
2024/04/17 12:19:35;;;;;;;;;;;;;;;6.40;96.01;95326.44;108256;1279;124926;-87
2024/04/17 12:22:02;;;;;;;;;;;;;;;6.42;95.69;95330.15;108402;1284;24278;-87
2024/04/17 12:27:13;;;;;;;;;;;;;;;6.42;95.52;95330.55;108383;1283;23662;-88
2024/04/17 12:29:42;;;;;;;;;;;;;;;6.45;95.77;95331.02;108284;1282;125155;-88
2024/04/17 12:32:09;;;;;;;;;;;;;;;6.50;95.28;95335.36;108391;1277;22509;-87
2024/04/17 12:34:36;;;;;;;;;;;;;;;6.52;93.46;95337.77;108390;1284;22536;-87
2024/04/17 12:37:02;;;;;;;;;;;;;;;6.49;93.12;95339.28;108294;1284;124881;-88
2024/04/17 12:39:29;;;;;;;;;;;;;;;6.49;93.73;95341.14;108373;1284;22710;-88